ADDS METAR Data INFO
IDs: Format: Raw Decoded Include TAF

Data at: 2054 UTC 24 Jun 2017

KBKD 242035Z AUTO 03005KT 7SM SCT032 27/18 A3014 RMK AO2 T02680184
KBKD 242015Z AUTO 29004KT 10SM SCT028 27/18 A3013 RMK AO2 T02650176
KBKD 241955Z AUTO 33004KT 10SM BKN028 26/18 A3014 RMK AO2 T02640183
KBKD 241935Z AUTO 29005KT 10SM BKN026 27/18 A3015 RMK AO2 T02650183
KBKD 241910Z AUTO 32003KT 7SM OVC022 26/18 A3017 RMK AO2 T02580184
KBKD 241855Z AUTO 09004KT 5SM HZ BKN022 BKN029 26/18 A3017 RMK AO2 T02600184
KBKD 241835Z AUTO 09003KT 5SM HZ SCT018 25/18 A3018 RMK AO2 T02510184
KBKD 241815Z AUTO 00000KT 5SM HZ BKN016 BKN021 25/19 A3017 RMK AO2 T02480185
KBKD 241755Z AUTO 13006KT 5SM HZ BKN016 24/19 A3015 RMK AO2 60001 T02380193 10238 20203
KBKD 241735Z AUTO 04004KT 7SM SCT016 24/20 A3017 RMK AO2 T02350195
KBKD 241715Z AUTO 14009G14KT 7SM CLR 22/20 A3013 RMK AO2 T02230197
KBKD 241655Z AUTO 13007KT 5SM BR BKN120 22/20 A3016 RMK AO2 T02210200
KBKD 241635Z AUTO 12007KT 7SM BKN120 22/20 A3016 RMK AO2 T02160201
KBKD 241615Z AUTO 12010G15KT 7SM CLR 22/20 A3017 RMK AO2 T02150203
KBKD 241555Z AUTO 12012G17KT 5SM BR CLR 21/21 A3016 RMK AO2 P0002 T02130207
KBKD 241535Z AUTO 12012G18KT 10SM SCT011 SCT044 SCT050 21/21 A3015 RMK AO2 LTG DSNT NW P0002 T02110206
KBKD 241515Z AUTO 15010G16KT 10SM -RA SCT011 SCT046 BKN060 21/21 A3017 RMK AO2 P0002 T02080205
KBKD 241455Z AUTO 12014G19KT 10SM -RA SCT060 BKN070 BKN085 21/20 A3016 RMK AO2 P0014 60015 T02050202
KBKD 241435Z AUTO 11013KT 7SM -VCTSRA SCT055 OVC070 21/20 A3017 RMK AO2 LTG DSNT SE P0012 T02050201
KBKD 241415Z AUTO 10010G16KT 7SM TSRA SCT045 SCT055 OVC070 21/20 A3018 RMK AO2 LTG DSNT E P0006 T02050201
KBKD 241355Z AUTO 10012G17KT 7SM TSRA SCT040 BKN050 OVC070 20/20 A3017 RMK AO2 LTG DSNT ALQS P0022 T02040201
KBKD 241335Z AUTO 10012KT 5SM RA BKN008 BKN014 OVC039 21/20 A3017 RMK AO2 LTG DSNT E THRU W P0017 T02050201
KBKD 241315Z AUTO 04005KT 4SM +VCTSRA OVC008 21/20 A3018 RMK AO2 LTG DSNT E THRU S P0008 T02050202
KBKD 241255Z AUTO 07008KT 7SM RA BKN008 OVC060 21/20 A3016 RMK AO2 LTG DSNT ALQS P0005 T02050201
KBKD 241235Z AUTO 07009G15KT 10SM TSRA OVC060 21/20 A3013 RMK AO2 LTG DSNT ALQS P0003 T02050201
KBKD 241215Z AUTO 06012KT 10SM VCTSRA SCT032 SCT047 OVC050 21/20 A3011 RMK AO2 LTG DSNT ALQS P0001 T02050200
KBKD 241155Z AUTO 06010G17KT 5SM TSRA SCT010 BKN044 OVC060 21/20 A3010 RMK AO2 LTG DSNT ALQS P0043 60052 70052 T02050200 10300 20200
KBKD 241135Z AUTO 07011G20KT 10SM -TSRA SCT008 BKN016 OVC060 21/20 A3009 RMK AO2 LTG DSNT ALQS P0038 T02050201
KBKD 241115Z AUTO 07017G34KT 1 3/4SM +TSRA OVC008 20/20 A3007 RMK AO2 LTG DSNT ALQS P0033 T02020198
KBKD 241055Z AUTO 04029G37KT 1 1/4SM +TSRA BKN006 OVC014 20/20 A3004 RMK AO2 LTG DSNT ALQS P0080 T02030199
KBKD 241035Z AUTO 02019G26KT 1SM +TSRA BKN008 OVC013 20/19 A3007 RMK AO2 LTG DSNT ALQS P0038 T02010193
KBKD 241015Z AUTO 35024G31KT 10SM TS BKN015 OVC034 24/18 A3003 RMK AO2 LTG DSNT ALQS T02410184
KBKD 240955Z AUTO 12010KT 10SM VCTS BKN015 OVC034 25/21 A2995 RMK AO2 LTG DSNT NW THRU NE T02530209
KBKD 240935Z AUTO 11013G20KT 10SM SCT015 BKN034 OVC065 26/21 A2995 RMK AO2 LTG DSNT NW THRU SE T02610214
KBKD 240915Z AUTO 10016G20KT 10SM SCT034 SCT065 27/21 A2993 RMK AO2 LTG DSNT E SE AND NW T02670212
KBKD 240855Z AUTO 08013G19KT 10SM CLR 27/21 A2991 RMK AO2 LTG DSNT N THRU SE T02720211
KBKD 240835Z AUTO 09015G23KT 10SM SCT060 SCT070 SCT085 28/22 A2991 RMK AO2 T02800220
KBKD 240815Z AUTO 07012G19KT 10SM BKN060 BKN070 BKN090 29/22 A2992 RMK AO2 LTG DSNT E T02870222
KBKD 240755Z AUTO 08007KT 10SM BKN060 BKN070 OVC090 29/22 A2991 RMK AO2 LTG DSNT E AND SE T02910216
KBKD 240735Z AUTO 09010KT 10SM SCT050 BKN060 BKN070 29/21 A2992 RMK AO2 T02920212
KBKD 240715Z AUTO 07003KT 10SM BKN060 BKN090 30/21 A2993 RMK AO2 T02950213
KBKD 240655Z AUTO 07004KT 10SM BKN060 30/22 A2993 RMK AO2 T02970215
KBKD 240635Z AUTO 08003KT 10SM BKN065 30/21 A2994 RMK AO2 T02990212
KBKD 240615Z AUTO 07005KT 10SM BKN065 30/21 A2995 RMK AO2 T02980211
KBKD 240555Z AUTO 06005KT 10SM SCT065 30/21 A2995 RMK AO2 T03000210 10365 20300 404050232
KBKD 240535Z AUTO 09004KT 10SM CLR 31/21 A2995 RMK AO2 T03050210
KBKD 240515Z AUTO 11004KT 10SM CLR 31/21 A2994 RMK AO2 T03070210
KBKD 240455Z AUTO 11005KT 10SM CLR 31/21 A2993 RMK AO2 T03100208
KBKD 240435Z AUTO 12006KT 10SM CLR 31/21 A2992 RMK AO2 T03130207
KBKD 240415Z AUTO 11009KT 10SM CLR 32/21 A2992 RMK AO2 T03190205
KBKD 240355Z AUTO 10008KT 10SM CLR 32/20 A2991 RMK AO2 T03200204
KBKD 240335Z AUTO 09008KT 10SM CLR 32/20 A2990 RMK AO2 T03210204
KBKD 240315Z AUTO 09006KT 10SM CLR 33/20 A2990 RMK AO2 T03250204
KBKD 240255Z AUTO 10006KT 10SM CLR 33/20 A2989 RMK AO2 T03300203
KBKD 240235Z AUTO 09008KT 10SM CLR 34/20 A2988 RMK AO2 T03350201
KBKD 240215Z AUTO 09007KT 10SM CLR 34/20 A2986 RMK AO2 T03400195
KBKD 240155Z AUTO 10008KT 10SM CLR 35/19 A2984 RMK AO2 T03450186
KBKD 240135Z AUTO 10007KT 10SM CLR 35/19 A2983 RMK AO2 T03500185
KBKD 240115Z AUTO 11009KT 10SM CLR 35/18 A2982 RMK AO2 LTG DSNT SW T03510178
KBKD 240055Z AUTO 10007KT 10SM CLR 35/17 A2981 RMK AO2 T03530165
KBKD 240035Z AUTO 11007KT 10SM CLR 36/16 A2981 RMK AO2 LTG DSNT SW T03560161
KBKD 240015Z AUTO 13006KT 10SM CLR 36/17 A2980 RMK AO2 T03600165
KBKD 232355Z AUTO 13007KT 10SM CLR 37/16 A2980 RMK AO2 LTG DSNT SW T03650164 10405 20365
KBKD 232335Z AUTO 12005KT 10SM CLR 37/17 A2980 RMK AO2 T03700166
KBKD 232315Z AUTO 12009KT 10SM CLR 38/16 A2979 RMK AO2 T03760160
KBKD 232255Z AUTO 10007KT 10SM CLR 39/15 A2979 RMK AO2 T03850148
KBKD 232235Z AUTO 08009G16KT 10SM CLR 39/15 A2978 RMK AO2 T03900147
KBKD 232215Z AUTO 11011G14KT 10SM CLR 39/15 A2978 RMK AO2 T03940151
KBKD 232155Z AUTO 11014G18KT 10SM CLR 40/15 A2978 RMK AO2 T03990147
KBKD 232135Z AUTO 10006G16KT 10SM CLR 40/14 A2978 RMK AO2 LTG DSNT W AND NW T03990143
KBKD 232115Z AUTO 06007KT 10SM CLR 40/15 A2979 RMK AO2 T04000148
KBKD 232055Z AUTO 11006G15KT 10SM CLR 40/15 A2980 RMK AO2 T03990149
KBKD 232035Z AUTO 10005KT 10SM SCT090 40/15 A2980 RMK AO2 T04000151
KBKD 232015Z AUTO 09007KT 030V120 10SM BKN090 40/15 A2980 RMK AO2 T03990149
KBKD 231955Z AUTO 10008KT 10SM SCT090 40/15 A2980 RMK AO2 T03980147
KBKD 231935Z AUTO 00000KT 10SM CLR 39/15 A2980 RMK AO2 T03930146
KBKD 231915Z AUTO 06003KT 10SM CLR 39/14 A2981 RMK AO2 T03910143
KBKD 231855Z AUTO 15003KT 10SM CLR 39/15 A2981 RMK AO2 T03870154
KBKD 231835Z AUTO 00000KT 10SM CLR 38/15 A2981 RMK AO2 T03830151
KBKD 231815Z AUTO 00000KT 10SM CLR 38/15 A2981 RMK AO2 T03820153
KBKD 231755Z AUTO 00000KT 10SM CLR 37/16 A2981 RMK AO2 T03730159 10374 20238
KBKD 231735Z AUTO 00000KT 10SM CLR 37/15 A2980 RMK AO2 T03690154
KBKD 231715Z AUTO 20004KT 10SM CLR 37/17 A2980 RMK AO2 T03670167
KBKD 231655Z AUTO 22004KT 10SM CLR 36/17 A2979 RMK AO2 T03600173
KBKD 231635Z AUTO 21008KT 10SM CLR 35/18 A2979 RMK AO2 T03540175
KBKD 231615Z AUTO 20006KT 10SM CLR 34/18 A2979 RMK AO2 T03440179
KBKD 231555Z AUTO 22007KT 10SM CLR 34/18 A2980 RMK AO2 T03350182
KBKD 231535Z AUTO 21008KT 10SM CLR 32/18 A2980 RMK AO2 T03220184
KBKD 231515Z AUTO 21009KT 10SM CLR 32/18 A2980 RMK AO2 T03180183
KBKD 231455Z AUTO 20009KT 10SM CLR 31/18 A2980 RMK AO2 T03100184
KBKD 231435Z AUTO 18005KT 10SM CLR 30/19 A2980 RMK AO2 T02980185
KBKD 231415Z AUTO 17004KT 7SM CLR 29/19 A2981 RMK AO2 T02890185
KBKD 231355Z AUTO 21004KT 10SM CLR 28/19 A2981 RMK AO2 T02810194
KBKD 231335Z AUTO 19003KT 10SM CLR 27/20 A2980 RMK AO2 T02670202
KBKD 231315Z AUTO 12003KT 10SM CLR 26/21 A2979 RMK AO2 T02620207
KBKD 231255Z AUTO 00000KT 10SM CLR 25/21 A2979 RMK AO2 T02530210
KBKD 231235Z AUTO 00000KT 10SM CLR 25/22 A2978 RMK AO2 T02450220
KBKD 231215Z AUTO 00000KT 10SM CLR 24/22 A2977 RMK AO2 T02400218
KBKD 231155Z AUTO 00000KT 10SM CLR 24/22 A2976 RMK AO2 T02370220 10264 20232
KBKD 231135Z AUTO 00000KT 10SM CLR 23/22 A2976 RMK AO2 T02320217
KBKD 231115Z AUTO 00000KT 10SM CLR 24/21 A2974 RMK AO2 T02410206
KBKD 231055Z AUTO 15004KT 10SM CLR 24/21 A2973 RMK AO2 LTG DSNT N T02440207
KBKD 231035Z AUTO 15005KT 10SM CLR 25/21 A2971 RMK AO2 T02450207
KBKD 231015Z AUTO 15005KT 10SM CLR 25/21 A2971 RMK AO2 T02500207
KBKD 230955Z AUTO 00000KT 10SM CLR 25/21 A2971 RMK AO2 T02500207
KBKD 230935Z AUTO 14007KT 10SM CLR 25/21 A2970 RMK AO2 T02510207
KBKD 230915Z AUTO 14008KT 10SM CLR 25/21 A2970 RMK AO2 T02500205
KBKD 230855Z AUTO 13005KT 10SM CLR 25/21 A2971 RMK AO2 T02520205


Page loaded:  20:54 UTC  |   01:54 PM Pacific  |   02:54 PM Mountain  |   03:54 PM Central  |   04:54 PM Eastern

 

ADVISORIES

FORECASTS

FORECASTS

OBSERVATIONS

USER TOOLS

ABOUT US